Arklow Rock — PBZM — position and weather

sailwx.info

Track history (hours):
 
Tides and Currents Weather Stations Pressure Air Temp Water Temp Dewpoint Dewpoint Depression Visibility Wind Speed Wind Dir Waves Ship Positions

Arklow Rock

Last reported at 2016-May-25 04:32 UTC. Time now 2016-May-25 05:18 UTC.
Position N 51°50' W 008°20'.

Length 90 m; draft 3.9 m.

Type: Cargo ship. MMSI: 246002000.

Date/timePositionNaut miles runAvg speedWind from/ knotsBaromVisibWave heightAir tempDewpointWater temp
2016-May-25 04:32N 51°50' W 008°20'0 0.0
2016-May-25 03:32N 51°50' W 008°20'0 0.0
2016-May-25 02:32N 51°50' W 008°20'0 0.0
2016-May-25 01:32N 51°50' W 008°20'0 0.0
2016-May-25 00:32N 51°50' W 008°20'0 0.0
2016-May-24 23:32N 51°50' W 008°20'0 0.0
2016-May-24 22:32N 51°50' W 008°20'0 0.0
2016-May-24 21:32N 51°50' W 008°20'0 0.0
2016-May-24 20:32N 51°50' W 008°20'0 0.0
2016-May-24 19:32N 51°50' W 008°20'0 0.0
2016-May-24 18:32N 51°50' W 008°20'0 0.0
2016-May-24 17:32N 51°50' W 008°20'0 0.0
2016-May-24 16:32N 51°50' W 008°20'0 0.0
2016-May-24 15:32N 51°50' W 008°20'0 0.0
2016-May-24 14:32N 51°50' W 008°20'0 0.0
2016-May-24 13:32N 51°50' W 008°20'0 0.0
2016-May-24 12:33N 51°50' W 008°20'3 2.7
2016-May-24 11:34N 51°48' W 008°16'1010.0
2016-May-24 10:33N 51°46' W 008°00'1212.1
2016-May-24 09:33N 51°50' W 007°41'1211.9
2016-May-24 08:33N 51°53' W 007°23'1211.6
2016-May-24 07:32N 51°56' W 007°04'1111.6
2016-May-24 06:33N 51°59' W 006°47'14412.0
2016-May-23 18:33N 54°14' W 005°24'1211.6
2016-May-23 17:33N 54°26' W 005°20'1111.3
2016-May-23 16:33N 54°37' W 005°25'8 8.2
2016-May-23 15:33N 54°42' W 005°35'12 1.0
2016-May-23 03:19N 54°37' W 005°55'0 0.0
2016-May-23 02:19N 54°37' W 005°55'0 0.0
2016-May-22 13:24N 54°37' W 005°55'0 0.0
2016-May-22 09:18N 54°37' W 005°55'1 0.1
2016-May-21 23:30N 54°37' W 005°54'910.0
2016-May-21 22:33N 54°43' W 005°40'8 8.4
2016-May-21 21:33N 54°40' W 005°27'1010.3
2016-May-21 20:33N 54°30' W 005°22'1010.2
2016-May-21 19:33N 54°19' W 005°21'1111.4
2016-May-21 18:33N 54°08' W 005°23'22611.3
2016-May-20 22:32N 50°23' W 005°52'2110.4
2016-May-20 20:33N 50°02' W 005°52'55 9.1
2016-May-20 14:32N 50°03' W 004°27'1110.8
2016-May-20 13:33N 50°05' W 004°11'1211.7
2016-May-20 12:31N 50°09' W 003°53'1212.7
2016-May-20 11:33N 50°11' W 003°34'1212.0
2016-May-20 10:33N 50°13' W 003°16'1111.3
2016-May-20 09:33N 50°14' W 002°58'1110.6
2016-May-20 08:33N 50°16' W 002°42'8410.5
2016-May-20 00:31N 50°29' W 000°31'1212.0
2016-May-19 23:33N 50°31' W 000°13'1111.1
2016-May-19 22:33N 50°33' E 000°04'1110.3
2016-May-19 21:28N 50°36' E 000°21'3310.1
2016-May-19 18:12N 50°53' E 001°05'812.7
2016-May-19 17:33N 50°58' E 001°15'1413.5
2016-May-19 16:33N 51°07' E 001°32'1212.5
2016-May-19 15:33N 51°15' E 001°46'1111.4
2016-May-19 14:33N 51°24' E 001°58'1110.8
2016-May-19 13:32N 51°20' E 002°15'1110.5
2016-May-19 12:32N 51°23' E 002°31'10 9.9
2016-May-19 11:33N 51°22' E 002°47'1010.3
2016-May-19 10:33N 51°22' E 003°03'1010.0
2016-May-19 09:33N 51°24' E 003°19'10 9.8
2016-May-19 08:33N 51°26' E 003°35'1010.1
2016-May-19 07:33N 51°21' E 003°49'1 1.5
2016-May-19 06:34N 51°19' E 003°50'3 2.6
2016-May-19 05:31N 51°17' E 003°51'0 0.0
2016-May-19 04:31N 51°17' E 003°51'0 0.0
2016-May-19 03:31N 51°17' E 003°51'0 0.0
2016-May-19 02:31N 51°17' E 003°51'0 0.0
2016-May-19 01:31N 51°17' E 003°51'0 0.0
2016-May-19 00:31N 51°17' E 003°51'0 0.0
2016-May-18 23:31N 51°17' E 003°51'0 0.0
2016-May-18 22:31N 51°17' E 003°51'0 0.0
2016-May-18 21:31N 51°17' E 003°51'0 0.0
2016-May-18 20:31N 51°17' E 003°51'0 0.0
2016-May-18 19:31N 51°17' E 003°51'0 0.0
2016-May-18 18:31N 51°17' E 003°51'0 0.0
2016-May-18 17:31N 51°17' E 003°51'0 0.0
2016-May-18 16:31N 51°17' E 003°51'0 0.0
2016-May-18 15:31N 51°17' E 003°51'0 0.0
2016-May-18 14:31N 51°17' E 003°51'0 0.0
2016-May-18 13:31N 51°17' E 003°51'0 0.0
2016-May-18 12:31N 51°17' E 003°51'0 0.0
2016-May-18 11:31N 51°17' E 003°51'3 3.1
2016-May-18 10:33N 51°19' E 003°50'5 4.8
2016-May-18 09:33N 51°22' E 003°44'1111.5
2016-May-18 08:33N 51°25' E 003°26'1313.1
2016-May-18 07:32N 51°24' E 003°04'1111.5
2016-May-18 06:33N 51°21' E 002°47'19 9.7
2016-May-18 04:33N 51°19' E 002°16'1211.7
2016-May-18 03:34N 51°24' E 001°59'1211.7
2016-May-18 02:34N 51°29' E 001°42'1413.6
2016-May-18 01:33N 51°29' E 001°20'1514.4
2016-May-18 00:31N 51°29' E 000°56'1313.8
2016-May-17 23:34N 51°30' E 000°35'9 9.3
2016-May-17 22:34N 51°27' E 000°21'0 0.3
2016-May-17 21:34N 51°27' E 000°21'0 0.0
2016-May-17 20:33N 51°27' E 000°21'0 0.0
2016-May-17 19:34N 51°27' E 000°21'0 0.0
2016-May-17 18:33N 51°27' E 000°21'0 0.0
2016-May-17 17:34N 51°27' E 000°21'0 0.0
2016-May-17 16:33N 51°27' E 000°21'0 0.0
2016-May-17 15:33N 51°27' E 000°21'0 0.0
2016-May-17 14:34N 51°27' E 000°21'0 0.0
2016-May-17 13:34N 51°27' E 000°21'0 0.0
2016-May-17 12:34N 51°27' E 000°21'0 0.0
2016-May-17 11:34N 51°27' E 000°21'0 0.0
2016-May-17 10:33N 51°27' E 000°21'0 0.0
2016-May-17 09:34N 51°27' E 000°21'0 0.0
2016-May-17 08:34N 51°27' E 000°21'0 0.0
2016-May-17 07:34N 51°27' E 000°21'0 0.0
2016-May-17 06:34N 51°27' E 000°21'0 0.0
2016-May-17 05:34N 51°27' E 000°21'0 0.0
2016-May-17 04:34N 51°27' E 000°21'0 0.0
2016-May-17 03:34N 51°27' E 000°21'0 0.0
2016-May-17 02:33N 51°27' E 000°21'0 0.0
2016-May-17 01:33N 51°27' E 000°21'0 0.0
2016-May-17 00:33N 51°27' E 000°21'0 0.0
2016-May-16 23:34N 51°27' E 000°21'0 0.0
2016-May-16 22:34N 51°27' E 000°21'0 0.0
2016-May-16 21:34N 51°27' E 000°21'0 0.0
2016-May-16 20:34N 51°27' E 000°21'0 0.0
2016-May-16 19:34N 51°27' E 000°21'0 0.0
2016-May-16 18:34N 51°27' E 000°21'0 0.0
2016-May-16 17:34N 51°27' E 000°21'0 0.0
2016-May-16 16:34N 51°27' E 000°21'0 0.0
2016-May-16 15:34N 51°27' E 000°21'0 0.0
2016-May-16 14:34N 51°27' E 000°21'0 0.0
2016-May-16 13:34N 51°27' E 000°21'0 0.0
2016-May-16 12:34N 51°27' E 000°21'0 0.0
2016-May-16 11:33N 51°27' E 000°21'0 0.0
2016-May-16 10:33N 51°27' E 000°21'0 0.0
2016-May-16 09:34N 51°27' E 000°21'0 0.0
2016-May-16 08:34N 51°27' E 000°21'0 0.0
2016-May-16 07:34N 51°27' E 000°21'0 0.3
2016-May-16 06:34N 51°27' E 000°21'0 0.2
2016-May-16 05:34N 51°27' E 000°20'7 6.8
2016-May-16 04:34N 51°30' E 000°30'6 5.6
2016-May-16 03:31N 51°30' E 000°39'0 0.1
2016-May-16 02:31N 51°30' E 000°39'3 2.7
2016-May-16 01:33N 51°30' E 000°43'10 9.8
2016-May-16 00:33N 51°29' E 000°59'11 9.6
2016-May-15 23:26N 51°29' E 001°17'8 9.4
2016-May-15 22:33N 51°27' E 001°29'1111.3
2016-May-15 21:33N 51°16' E 001°37'10 9.8
2016-May-15 20:33N 51°07' E 001°41'1312.9
2016-May-15 19:33N 50°58' E 001°27'5511.0
2016-May-15 14:32N 50°24' E 000°19'1211.9
2016-May-15 13:33N 50°20' E 000°01'1111.4
2016-May-15 12:33N 50°23' W 000°16'1110.9
2016-May-15 11:33N 50°26' W 000°33'24 9.8
2016-May-15 09:07N 50°29' W 001°10'  
Track history (hours):
 
Tides and Currents Weather Stations Pressure Air Temp Water Temp Dewpoint Dewpoint Depression Visibility Wind Speed Wind Dir Waves Ship Positions

Arklow Rock

Last reported at 2016-May-25 04:32 UTC. Time now 2016-May-25 05:18 UTC.
Position N 51°50' W 008°20'.

Length 90 m; draft 3.9 m.

Type: Cargo ship. MMSI: 246002000.

Date/timePositionNaut miles runAvg speedWind from/ knotsBaromVisibWave heightAir tempDewpointWater temp
2016-May-25 04:32N 51°50' W 008°20'0 0.0
2016-May-25 03:32N 51°50' W 008°20'0 0.0
2016-May-25 02:32N 51°50' W 008°20'0 0.0
2016-May-25 01:32N 51°50' W 008°20'0 0.0
2016-May-25 00:32N 51°50' W 008°20'0 0.0
2016-May-24 23:32N 51°50' W 008°20'0 0.0
2016-May-24 22:32N 51°50' W 008°20'0 0.0
2016-May-24 21:32N 51°50' W 008°20'0 0.0
2016-May-24 20:32N 51°50' W 008°20'0 0.0
2016-May-24 19:32N 51°50' W 008°20'0 0.0
2016-May-24 18:32N 51°50' W 008°20'0 0.0
2016-May-24 17:32N 51°50' W 008°20'0 0.0
2016-May-24 16:32N 51°50' W 008°20'0 0.0
2016-May-24 15:32N 51°50' W 008°20'0 0.0
2016-May-24 14:32N 51°50' W 008°20'0 0.0
2016-May-24 13:32N 51°50' W 008°20'0 0.0
2016-May-24 12:33N 51°50' W 008°20'3 2.7
2016-May-24 11:34N 51°48' W 008°16'1010.0
2016-May-24 10:33N 51°46' W 008°00'1212.1
2016-May-24 09:33N 51°50' W 007°41'1211.9
2016-May-24 08:33N 51°53' W 007°23'1211.6
2016-May-24 07:32N 51°56' W 007°04'1111.6
2016-May-24 06:33N 51°59' W 006°47'14412.0
2016-May-23 18:33N 54°14' W 005°24'1211.6
2016-May-23 17:33N 54°26' W 005°20'1111.3
2016-May-23 16:33N 54°37' W 005°25'8 8.2
2016-May-23 15:33N 54°42' W 005°35'12 1.0
2016-May-23 03:19N 54°37' W 005°55'0 0.0
2016-May-23 02:19N 54°37' W 005°55'0 0.0
2016-May-22 13:24N 54°37' W 005°55'0 0.0
2016-May-22 09:18N 54°37' W 005°55'1 0.1
2016-May-21 23:30N 54°37' W 005°54'910.0
2016-May-21 22:33N 54°43' W 005°40'8 8.4
2016-May-21 21:33N 54°40' W 005°27'1010.3
2016-May-21 20:33N 54°30' W 005°22'1010.2
2016-May-21 19:33N 54°19' W 005°21'1111.4
2016-May-21 18:33N 54°08' W 005°23'22611.3
2016-May-20 22:32N 50°23' W 005°52'2110.4
2016-May-20 20:33N 50°02' W 005°52'55 9.1
2016-May-20 14:32N 50°03' W 004°27'1110.8
2016-May-20 13:33N 50°05' W 004°11'1211.7
2016-May-20 12:31N 50°09' W 003°53'1212.7
2016-May-20 11:33N 50°11' W 003°34'1212.0
2016-May-20 10:33N 50°13' W 003°16'1111.3
2016-May-20 09:33N 50°14' W 002°58'1110.6
2016-May-20 08:33N 50°16' W 002°42'8410.5
2016-May-20 00:31N 50°29' W 000°31'1212.0
2016-May-19 23:33N 50°31' W 000°13'1111.1
2016-May-19 22:33N 50°33' E 000°04'1110.3
2016-May-19 21:28N 50°36' E 000°21'3310.1
2016-May-19 18:12N 50°53' E 001°05'812.7
2016-May-19 17:33N 50°58' E 001°15'1413.5
2016-May-19 16:33N 51°07' E 001°32'1212.5
2016-May-19 15:33N 51°15' E 001°46'1111.4
2016-May-19 14:33N 51°24' E 001°58'1110.8
2016-May-19 13:32N 51°20' E 002°15'1110.5
2016-May-19 12:32N 51°23' E 002°31'10 9.9
2016-May-19 11:33N 51°22' E 002°47'1010.3
2016-May-19 10:33N 51°22' E 003°03'1010.0
2016-May-19 09:33N 51°24' E 003°19'10 9.8
2016-May-19 08:33N 51°26' E 003°35'1010.1
2016-May-19 07:33N 51°21' E 003°49'1 1.5
2016-May-19 06:34N 51°19' E 003°50'3 2.6
2016-May-19 05:31N 51°17' E 003°51'0 0.0
2016-May-19 04:31N 51°17' E 003°51'0 0.0
2016-May-19 03:31N 51°17' E 003°51'0 0.0
2016-May-19 02:31N 51°17' E 003°51'0 0.0
2016-May-19 01:31N 51°17' E 003°51'0 0.0
2016-May-19 00:31N 51°17' E 003°51'0 0.0
2016-May-18 23:31N 51°17' E 003°51'0 0.0
2016-May-18 22:31N 51°17' E 003°51'0 0.0
2016-May-18 21:31N 51°17' E 003°51'0 0.0
2016-May-18 20:31N 51°17' E 003°51'0 0.0
2016-May-18 19:31N 51°17' E 003°51'0 0.0
2016-May-18 18:31N 51°17' E 003°51'0 0.0
2016-May-18 17:31N 51°17' E 003°51'0 0.0
2016-May-18 16:31N 51°17' E 003°51'0 0.0
2016-May-18 15:31N 51°17' E 003°51'0 0.0
2016-May-18 14:31N 51°17' E 003°51'0 0.0
2016-May-18 13:31N 51°17' E 003°51'0 0.0
2016-May-18 12:31N 51°17' E 003°51'0 0.0
2016-May-18 11:31N 51°17' E 003°51'3 3.1
2016-May-18 10:33N 51°19' E 003°50'5 4.8
2016-May-18 09:33N 51°22' E 003°44'1111.5
2016-May-18 08:33N 51°25' E 003°26'1313.1
2016-May-18 07:32N 51°24' E 003°04'1111.5
2016-May-18 06:33N 51°21' E 002°47'19 9.7
2016-May-18 04:33N 51°19' E 002°16'1211.7
2016-May-18 03:34N 51°24' E 001°59'1211.7
2016-May-18 02:34N 51°29' E 001°42'1413.6
2016-May-18 01:33N 51°29' E 001°20'1514.4
2016-May-18 00:31N 51°29' E 000°56'1313.8
2016-May-17 23:34N 51°30' E 000°35'9 9.3
2016-May-17 22:34N 51°27' E 000°21'0 0.3
2016-May-17 21:34N 51°27' E 000°21'0 0.0
2016-May-17 20:33N 51°27' E 000°21'0 0.0
2016-May-17 19:34N 51°27' E 000°21'0 0.0
2016-May-17 18:33N 51°27' E 000°21'0 0.0
2016-May-17 17:34N 51°27' E 000°21'0 0.0
2016-May-17 16:33N 51°27' E 000°21'0 0.0
2016-May-17 15:33N 51°27' E 000°21'0 0.0
2016-May-17 14:34N 51°27' E 000°21'0 0.0
2016-May-17 13:34N 51°27' E 000°21'0 0.0
2016-May-17 12:34N 51°27' E 000°21'0 0.0
2016-May-17 11:34N 51°27' E 000°21'0 0.0
2016-May-17 10:33N 51°27' E 000°21'0 0.0
2016-May-17 09:34N 51°27' E 000°21'0 0.0
2016-May-17 08:34N 51°27' E 000°21'0 0.0
2016-May-17 07:34N 51°27' E 000°21'0 0.0
2016-May-17 06:34N 51°27' E 000°21'0 0.0
2016-May-17 05:34N 51°27' E 000°21'0 0.0
2016-May-17 04:34N 51°27' E 000°21'0 0.0
2016-May-17 03:34N 51°27' E 000°21'0 0.0
2016-May-17 02:33N 51°27' E 000°21'0 0.0
2016-May-17 01:33N 51°27' E 000°21'0 0.0
2016-May-17 00:33N 51°27' E 000°21'0 0.0
2016-May-16 23:34N 51°27' E 000°21'0 0.0
2016-May-16 22:34N 51°27' E 000°21'0 0.0
2016-May-16 21:34N 51°27' E 000°21'0 0.0
2016-May-16 20:34N 51°27' E 000°21'0 0.0
2016-May-16 19:34N 51°27' E 000°21'0 0.0
2016-May-16 18:34N 51°27' E 000°21'0 0.0
2016-May-16 17:34N 51°27' E 000°21'0 0.0
2016-May-16 16:34N 51°27' E 000°21'0 0.0
2016-May-16 15:34N 51°27' E 000°21'0 0.0
2016-May-16 14:34N 51°27' E 000°21'0 0.0
2016-May-16 13:34N 51°27' E 000°21'0 0.0
2016-May-16 12:34N 51°27' E 000°21'0 0.0
2016-May-16 11:33N 51°27' E 000°21'0 0.0
2016-May-16 10:33N 51°27' E 000°21'0 0.0
2016-May-16 09:34N 51°27' E 000°21'0 0.0
2016-May-16 08:34N 51°27' E 000°21'0 0.0
2016-May-16 07:34N 51°27' E 000°21'0 0.3
2016-May-16 06:34N 51°27' E 000°21'0 0.2
2016-May-16 05:34N 51°27' E 000°20'7 6.8
2016-May-16 04:34N 51°30' E 000°30'6 5.6
2016-May-16 03:31N 51°30' E 000°39'0 0.1
2016-May-16 02:31N 51°30' E 000°39'3 2.7
2016-May-16 01:33N 51°30' E 000°43'10 9.8
2016-May-16 00:33N 51°29' E 000°59'11 9.6
2016-May-15 23:26N 51°29' E 001°17'8 9.4
2016-May-15 22:33N 51°27' E 001°29'1111.3
2016-May-15 21:33N 51°16' E 001°37'10 9.8
2016-May-15 20:33N 51°07' E 001°41'1312.9
2016-May-15 19:33N 50°58' E 001°27'5511.0
2016-May-15 14:32N 50°24' E 000°19'1211.9
2016-May-15 13:33N 50°20' E 000°01'1111.4
2016-May-15 12:33N 50°23' W 000°16'1110.9
2016-May-15 11:33N 50°26' W 000°33'24 9.8
2016-May-15 09:07N 50°29' W 001°10'  

Dump ship's entire track history